sensor_id;sensor_type;location;lat;lon;timestamp;temperature;humidity
51841;DHT22;37888;53.246;6.658;2024-03-08T00:00:13;2.60;99.90
51841;DHT22;37888;53.246;6.658;2024-03-08T00:02:39;2.70;99.90
51841;DHT22;37888;53.246;6.658;2024-03-08T00:05:05;2.70;99.90
51841;DHT22;37888;53.246;6.658;2024-03-08T00:07:31;2.80;99.90
51841;DHT22;37888;53.246;6.658;2024-03-08T00:09:57;2.70;99.90
51841;DHT22;37888;53.246;6.658;2024-03-08T00:12:23;2.80;99.90
51841;DHT22;37888;53.246;6.658;2024-03-08T00:14:51;2.70;99.90
51841;DHT22;37888;53.246;6.658;2024-03-08T00:17:16;2.70;99.90
51841;DHT22;37888;53.246;6.658;2024-03-08T00:19:42;2.60;99.90
51841;DHT22;37888;53.246;6.658;2024-03-08T00:22:08;2.60;99.90
51841;DHT22;37888;53.246;6.658;2024-03-08T00:24:35;2.60;99.90
51841;DHT22;37888;53.246;6.658;2024-03-08T00:27:00;2.60;99.90
51841;DHT22;37888;53.246;6.658;2024-03-08T00:29:27;2.40;99.90
51841;DHT22;37888;53.246;6.658;2024-03-08T00:31:53;2.40;99.90
51841;DHT22;37888;53.246;6.658;2024-03-08T00:34:18;2.40;99.90
51841;DHT22;37888;53.246;6.658;2024-03-08T00:36:44;2.30;99.90
51841;DHT22;37888;53.246;6.658;2024-03-08T00:39:10;2.30;99.90
51841;DHT22;37888;53.246;6.658;2024-03-08T00:41:37;2.20;99.90
51841;DHT22;37888;53.246;6.658;2024-03-08T00:44:03;3.20;99.90
51841;DHT22;37888;53.246;6.658;2024-03-08T00:46:30;2.20;99.90
51841;DHT22;37888;53.246;6.658;2024-03-08T00:48:57;2.10;99.90
51841;DHT22;37888;53.246;6.658;2024-03-08T00:51:22;2.10;99.90
51841;DHT22;37888;53.246;6.658;2024-03-08T00:53:48;2.00;99.90
51841;DHT22;37888;53.246;6.658;2024-03-08T00:56:13;2.00;99.90
51841;DHT22;37888;53.246;6.658;2024-03-08T00:58:39;2.00;99.90
51841;DHT22;37888;53.246;6.658;2024-03-08T01:01:05;1.90;99.90
51841;DHT22;37888;53.246;6.658;2024-03-08T01:03:31;1.90;99.90
51841;DHT22;37888;53.246;6.658;2024-03-08T01:05:57;1.90;99.90
51841;DHT22;37888;53.246;6.658;2024-03-08T01:08:23;1.80;99.90
51841;DHT22;37888;53.246;6.658;2024-03-08T01:10:48;1.80;99.90
51841;DHT22;37888;53.246;6.658;2024-03-08T01:13:16;1.70;99.90
51841;DHT22;37888;53.246;6.658;2024-03-08T01:15:41;1.70;99.90
51841;DHT22;37888;53.246;6.658;2024-03-08T01:18:07;1.70;99.90
51841;DHT22;37888;53.246;6.658;2024-03-08T01:20:33;1.70;99.90
51841;DHT22;37888;53.246;6.658;2024-03-08T01:22:58;1.70;99.90
51841;DHT22;37888;53.246;6.658;2024-03-08T01:25:24;1.70;99.90
51841;DHT22;37888;53.246;6.658;2024-03-08T01:27:50;1.60;99.90
51841;DHT22;37888;53.246;6.658;2024-03-08T01:30:15;1.70;99.90
51841;DHT22;37888;53.246;6.658;2024-03-08T01:32:43;1.60;99.90
51841;DHT22;37888;53.246;6.658;2024-03-08T01:35:09;1.60;99.90
51841;DHT22;37888;53.246;6.658;2024-03-08T01:37:35;1.60;99.90
51841;DHT22;37888;53.246;6.658;2024-03-08T01:40:02;1.60;99.90
51841;DHT22;37888;53.246;6.658;2024-03-08T01:42:28;1.60;99.90
51841;DHT22;37888;53.246;6.658;2024-03-08T01:44:54;1.60;99.90
51841;DHT22;37888;53.246;6.658;2024-03-08T01:47:21;1.60;99.90
51841;DHT22;37888;53.246;6.658;2024-03-08T01:49:49;1.60;99.90
51841;DHT22;37888;53.246;6.658;2024-03-08T01:52:16;1.60;99.90
51841;DHT22;37888;53.246;6.658;2024-03-08T01:54:44;1.60;99.90
51841;DHT22;37888;53.246;6.658;2024-03-08T01:57:10;1.50;99.90
51841;DHT22;37888;53.246;6.658;2024-03-08T01:59:36;1.50;99.90
51841;DHT22;37888;53.246;6.658;2024-03-08T02:02:02;1.50;99.90
51841;DHT22;37888;53.246;6.658;2024-03-08T02:04:28;1.50;99.90
51841;DHT22;37888;53.246;6.658;2024-03-08T02:06:59;1.50;99.90
51841;DHT22;37888;53.246;6.658;2024-03-08T02:09:25;1.50;99.90
51841;DHT22;37888;53.246;6.658;2024-03-08T02:11:50;1.50;99.90
51841;DHT22;37888;53.246;6.658;2024-03-08T02:14:19;1.40;99.90
51841;DHT22;37888;53.246;6.658;2024-03-08T02:16:45;1.40;99.90
51841;DHT22;37888;53.246;6.658;2024-03-08T02:19:10;1.30;99.90
51841;DHT22;37888;53.246;6.658;2024-03-08T02:21:36;1.30;99.90
51841;DHT22;37888;53.246;6.658;2024-03-08T02:24:22;1.20;99.90
51841;DHT22;37888;53.246;6.658;2024-03-08T02:26:48;1.20;99.90
51841;DHT22;37888;53.246;6.658;2024-03-08T02:29:14;1.20;99.90
51841;DHT22;37888;53.246;6.658;2024-03-08T02:31:40;1.20;99.90
51841;DHT22;37888;53.246;6.658;2024-03-08T02:34:05;1.10;99.90
51841;DHT22;37888;53.246;6.658;2024-03-08T02:36:31;1.10;99.90
51841;DHT22;37888;53.246;6.658;2024-03-08T02:39:03;1.10;99.90
51841;DHT22;37888;53.246;6.658;2024-03-08T02:41:30;1.10;99.90
51841;DHT22;37888;53.246;6.658;2024-03-08T02:43:56;1.10;99.90
51841;DHT22;37888;53.246;6.658;2024-03-08T02:46:21;1.10;99.90
51841;DHT22;37888;53.246;6.658;2024-03-08T02:48:47;1.10;99.90
51841;DHT22;37888;53.246;6.658;2024-03-08T02:51:16;1.10;99.90
51841;DHT22;37888;53.246;6.658;2024-03-08T02:53:42;1.10;99.90
51841;DHT22;37888;53.246;6.658;2024-03-08T02:56:08;1.10;99.90
51841;DHT22;37888;53.246;6.658;2024-03-08T02:58:38;1.10;99.90
51841;DHT22;37888;53.246;6.658;2024-03-08T03:01:04;1.00;99.90
51841;DHT22;37888;53.246;6.658;2024-03-08T03:03:30;1.10;99.90
51841;DHT22;37888;53.246;6.658;2024-03-08T03:05:55;1.10;99.90
51841;DHT22;37888;53.246;6.658;2024-03-08T03:08:21;1.20;99.90
51841;DHT22;37888;53.246;6.658;2024-03-08T03:10:47;1.20;99.90
51841;DHT22;37888;53.246;6.658;2024-03-08T03:13:13;1.20;99.90
51841;DHT22;37888;53.246;6.658;2024-03-08T03:15:39;1.10;99.90
51841;DHT22;37888;53.246;6.658;2024-03-08T03:18:07;1.10;99.90
51841;DHT22;37888;53.246;6.658;2024-03-08T03:20:33;1.10;99.90
51841;DHT22;37888;53.246;6.658;2024-03-08T03:23:02;1.10;99.90
51841;DHT22;37888;53.246;6.658;2024-03-08T03:25:28;1.10;99.90
51841;DHT22;37888;53.246;6.658;2024-03-08T03:28:00;1.10;99.90
51841;DHT22;37888;53.246;6.658;2024-03-08T03:30:26;1.10;99.90
51841;DHT22;37888;53.246;6.658;2024-03-08T03:32:59;1.00;99.90
51841;DHT22;37888;53.246;6.658;2024-03-08T03:35:26;1.00;99.90
51841;DHT22;37888;53.246;6.658;2024-03-08T03:37:52;1.00;99.90
51841;DHT22;37888;53.246;6.658;2024-03-08T03:40:28;1.00;99.90
51841;DHT22;37888;53.246;6.658;2024-03-08T03:42:54;1.00;99.90
51841;DHT22;37888;53.246;6.658;2024-03-08T03:45:19;0.90;99.90
51841;DHT22;37888;53.246;6.658;2024-03-08T03:47:45;0.90;99.90
51841;DHT22;37888;53.246;6.658;2024-03-08T03:50:11;0.90;99.90
51841;DHT22;37888;53.246;6.658;2024-03-08T03:52:37;0.90;99.90
51841;DHT22;37888;53.246;6.658;2024-03-08T03:55:03;0.90;99.90
51841;DHT22;37888;53.246;6.658;2024-03-08T03:57:30;0.90;99.90
51841;DHT22;37888;53.246;6.658;2024-03-08T03:59:56;0.90;99.90
51841;DHT22;37888;53.246;6.658;2024-03-08T04:02:24;0.80;99.90
51841;DHT22;37888;53.246;6.658;2024-03-08T04:04:54;0.80;99.90
51841;DHT22;37888;53.246;6.658;2024-03-08T04:07:20;0.80;99.90
51841;DHT22;37888;53.246;6.658;2024-03-08T04:09:49;0.80;99.90
51841;DHT22;37888;53.246;6.658;2024-03-08T04:12:14;0.80;99.90
51841;DHT22;37888;53.246;6.658;2024-03-08T04:14:41;0.80;99.90
51841;DHT22;37888;53.246;6.658;2024-03-08T04:17:07;0.80;99.90
51841;DHT22;37888;53.246;6.658;2024-03-08T04:19:34;0.80;99.90
51841;DHT22;37888;53.246;6.658;2024-03-08T04:22:00;0.90;99.90
51841;DHT22;37888;53.246;6.658;2024-03-08T04:24:26;0.80;99.90
51841;DHT22;37888;53.246;6.658;2024-03-08T04:26:52;0.80;99.90
51841;DHT22;37888;53.246;6.658;2024-03-08T04:29:18;0.80;99.90
51841;DHT22;37888;53.246;6.658;2024-03-08T04:31:44;0.90;99.90
51841;DHT22;37888;53.246;6.658;2024-03-08T04:34:10;0.90;99.90
51841;DHT22;37888;53.246;6.658;2024-03-08T04:36:35;0.80;99.90
51841;DHT22;37888;53.246;6.658;2024-03-08T04:39:01;0.80;99.90
51841;DHT22;37888;53.246;6.658;2024-03-08T04:41:27;0.80;99.90
51841;DHT22;37888;53.246;6.658;2024-03-08T04:43:53;0.80;99.90
51841;DHT22;37888;53.246;6.658;2024-03-08T04:46:19;0.80;99.90
51841;DHT22;37888;53.246;6.658;2024-03-08T04:48:44;0.80;99.90
51841;DHT22;37888;53.246;6.658;2024-03-08T04:51:10;0.80;99.90
51841;DHT22;37888;53.246;6.658;2024-03-08T04:53:36;0.80;99.90
51841;DHT22;37888;53.246;6.658;2024-03-08T04:56:02;0.70;99.90
51841;DHT22;37888;53.246;6.658;2024-03-08T04:58:32;0.70;99.90
51841;DHT22;37888;53.246;6.658;2024-03-08T05:01:00;0.60;99.90
51841;DHT22;37888;53.246;6.658;2024-03-08T05:03:26;0.60;99.90
51841;DHT22;37888;53.246;6.658;2024-03-08T05:05:51;0.60;99.90
51841;DHT22;37888;53.246;6.658;2024-03-08T05:08:17;0.60;99.90
51841;DHT22;37888;53.246;6.658;2024-03-08T05:10:44;0.60;99.90
51841;DHT22;37888;53.246;6.658;2024-03-08T05:13:09;0.60;99.90
51841;DHT22;37888;53.246;6.658;2024-03-08T05:15:35;0.60;99.90
51841;DHT22;37888;53.246;6.658;2024-03-08T05:18:02;0.60;99.90
51841;DHT22;37888;53.246;6.658;2024-03-08T05:20:27;0.60;99.90
51841;DHT22;37888;53.246;6.658;2024-03-08T05:22:53;0.60;99.90
51841;DHT22;37888;53.246;6.658;2024-03-08T05:25:18;0.60;99.90
51841;DHT22;37888;53.246;6.658;2024-03-08T05:27:44;0.60;99.90
51841;DHT22;37888;53.246;6.658;2024-03-08T05:30:10;0.60;99.90
51841;DHT22;37888;53.246;6.658;2024-03-08T05:32:43;0.60;99.90
51841;DHT22;37888;53.246;6.658;2024-03-08T05:35:11;0.60;99.90
51841;DHT22;37888;53.246;6.658;2024-03-08T05:37:40;0.50;99.90
51841;DHT22;37888;53.246;6.658;2024-03-08T05:40:06;0.50;99.90
51841;DHT22;37888;53.246;6.658;2024-03-08T05:42:35;0.50;99.90
51841;DHT22;37888;53.246;6.658;2024-03-08T05:45:02;0.50;99.90
51841;DHT22;37888;53.246;6.658;2024-03-08T05:47:28;0.50;99.90
51841;DHT22;37888;53.246;6.658;2024-03-08T05:49:54;0.60;99.90
51841;DHT22;37888;53.246;6.658;2024-03-08T05:52:19;0.50;99.90
51841;DHT22;37888;53.246;6.658;2024-03-08T05:54:45;0.60;99.90
51841;DHT22;37888;53.246;6.658;2024-03-08T05:57:12;0.50;99.90
51841;DHT22;37888;53.246;6.658;2024-03-08T05:59:39;0.50;99.90
51841;DHT22;37888;53.246;6.658;2024-03-08T06:02:05;0.60;99.90
51841;DHT22;37888;53.246;6.658;2024-03-08T06:04:30;0.50;99.90
51841;DHT22;37888;53.246;6.658;2024-03-08T06:06:56;0.50;99.90
51841;DHT22;37888;53.246;6.658;2024-03-08T06:09:24;0.50;99.90
51841;DHT22;37888;53.246;6.658;2024-03-08T06:11:50;0.50;99.90
51841;DHT22;37888;53.246;6.658;2024-03-08T06:14:16;0.50;99.90
51841;DHT22;37888;53.246;6.658;2024-03-08T06:16:45;0.50;99.90
51841;DHT22;37888;53.246;6.658;2024-03-08T06:19:10;0.50;99.90
51841;DHT22;37888;53.246;6.658;2024-03-08T06:21:37;0.50;99.90
51841;DHT22;37888;53.246;6.658;2024-03-08T06:24:03;0.40;99.90
51841;DHT22;37888;53.246;6.658;2024-03-08T06:26:28;0.50;99.90
51841;DHT22;37888;53.246;6.658;2024-03-08T06:28:54;0.50;99.90
51841;DHT22;37888;53.246;6.658;2024-03-08T06:31:20;0.50;99.90
51841;DHT22;37888;53.246;6.658;2024-03-08T06:33:46;0.50;99.90
51841;DHT22;37888;53.246;6.658;2024-03-08T06:36:11;0.50;99.90
51841;DHT22;37888;53.246;6.658;2024-03-08T06:38:37;0.60;99.90
51841;DHT22;37888;53.246;6.658;2024-03-08T06:41:10;0.60;99.90
51841;DHT22;37888;53.246;6.658;2024-03-08T06:43:41;0.70;99.90
51841;DHT22;37888;53.246;6.658;2024-03-08T06:46:06;0.70;99.90
51841;DHT22;37888;53.246;6.658;2024-03-08T06:48:32;0.80;99.90
51841;DHT22;37888;53.246;6.658;2024-03-08T06:50:58;0.80;99.90
51841;DHT22;37888;53.246;6.658;2024-03-08T06:53:23;0.90;99.90
51841;DHT22;37888;53.246;6.658;2024-03-08T06:55:50;0.90;99.90
51841;DHT22;37888;53.246;6.658;2024-03-08T06:58:16;0.20;99.90
51841;DHT22;37888;53.246;6.658;2024-03-08T07:00:42;1.20;99.90
51841;DHT22;37888;53.246;6.658;2024-03-08T07:03:09;1.30;99.90
51841;DHT22;37888;53.246;6.658;2024-03-08T07:05:37;1.40;99.90
51841;DHT22;37888;53.246;6.658;2024-03-08T07:08:03;1.50;99.90
51841;DHT22;37888;53.246;6.658;2024-03-08T07:10:29;1.50;99.90
51841;DHT22;37888;53.246;6.658;2024-03-08T07:12:54;1.50;99.90
51841;DHT22;37888;53.246;6.658;2024-03-08T07:15:20;1.60;99.90
51841;DHT22;37888;53.246;6.658;2024-03-08T07:17:46;1.60;99.90
51841;DHT22;37888;53.246;6.658;2024-03-08T07:20:12;1.80;99.90
51841;DHT22;37888;53.246;6.658;2024-03-08T07:22:39;2.00;99.90
51841;DHT22;37888;53.246;6.658;2024-03-08T07:25:05;2.20;99.90
51841;DHT22;37888;53.246;6.658;2024-03-08T07:27:53;2.60;99.90
51841;DHT22;37888;53.246;6.658;2024-03-08T07:30:19;2.90;99.90
51841;DHT22;37888;53.246;6.658;2024-03-08T07:33:04;3.20;99.90
51841;DHT22;37888;53.246;6.658;2024-03-08T07:35:29;3.60;99.90
51841;DHT22;37888;53.246;6.658;2024-03-08T07:37:56;3.90;99.90
51841;DHT22;37888;53.246;6.658;2024-03-08T07:40:22;4.20;99.90
51841;DHT22;37888;53.246;6.658;2024-03-08T07:42:48;4.30;99.90
51841;DHT22;37888;53.246;6.658;2024-03-08T07:45:14;4.40;99.90
51841;DHT22;37888;53.246;6.658;2024-03-08T07:47:41;4.50;99.90
51841;DHT22;37888;53.246;6.658;2024-03-08T07:50:07;4.60;99.60
51841;DHT22;37888;53.246;6.658;2024-03-08T07:52:36;4.80;97.90
51841;DHT22;37888;53.246;6.658;2024-03-08T07:55:04;5.00;93.70
51841;DHT22;37888;53.246;6.658;2024-03-08T07:57:31;5.10;87.70
51841;DHT22;37888;53.246;6.658;2024-03-08T07:59:57;5.20;91.40
51841;DHT22;37888;53.246;6.658;2024-03-08T08:02:24;5.40;91.50
51841;DHT22;37888;53.246;6.658;2024-03-08T08:04:49;5.60;84.70
51841;DHT22;37888;53.246;6.658;2024-03-08T08:07:15;5.80;84.70
51841;DHT22;37888;53.246;6.658;2024-03-08T08:09:41;6.00;89.90
51841;DHT22;37888;53.246;6.658;2024-03-08T08:12:08;6.20;89.80
51841;DHT22;37888;53.246;6.658;2024-03-08T08:14:37;6.20;76.10
51841;DHT22;37888;53.246;6.658;2024-03-08T08:17:03;6.50;77.60
51841;DHT22;37888;53.246;6.658;2024-03-08T08:19:29;6.80;82.00
51841;DHT22;37888;53.246;6.658;2024-03-08T08:21:55;6.80;77.60
51841;DHT22;37888;53.246;6.658;2024-03-08T08:24:21;6.90;66.40
51841;DHT22;37888;53.246;6.658;2024-03-08T08:26:47;7.00;72.70
51841;DHT22;37888;53.246;6.658;2024-03-08T08:29:13;6.90;58.80
51841;DHT22;37888;53.246;6.658;2024-03-08T08:31:39;7.00;66.10
51841;DHT22;37888;53.246;6.658;2024-03-08T08:34:04;6.90;66.60
51841;DHT22;37888;53.246;6.658;2024-03-08T08:36:31;6.80;63.90
51841;DHT22;37888;53.246;6.658;2024-03-08T08:38:57;6.50;63.00
51841;DHT22;37888;53.246;6.658;2024-03-08T08:41:23;6.20;70.80
51841;DHT22;37888;53.246;6.658;2024-03-08T08:43:49;5.70;66.60
51841;DHT22;37888;53.246;6.658;2024-03-08T08:46:19;5.40;69.50
51841;DHT22;37888;53.246;6.658;2024-03-08T08:48:44;5.10;70.70
51841;DHT22;37888;53.246;6.658;2024-03-08T08:51:13;5.00;72.80
51841;DHT22;37888;53.246;6.658;2024-03-08T08:53:42;4.70;70.60
51841;DHT22;37888;53.246;6.658;2024-03-08T08:56:12;4.60;69.80
51841;DHT22;37888;53.246;6.658;2024-03-08T08:58:44;4.50;67.80
51841;DHT22;37888;53.246;6.658;2024-03-08T09:01:10;4.50;70.20
51841;DHT22;37888;53.246;6.658;2024-03-08T09:03:36;4.50;70.10
51841;DHT22;37888;53.246;6.658;2024-03-08T09:06:05;4.40;70.90
51841;DHT22;37888;53.246;6.658;2024-03-08T09:08:35;4.40;67.20
51841;DHT22;37888;53.246;6.658;2024-03-08T09:11:01;4.50;66.90
51841;DHT22;37888;53.246;6.658;2024-03-08T09:13:26;4.50;68.50
51841;DHT22;37888;53.246;6.658;2024-03-08T09:15:53;4.50;66.90
51841;DHT22;37888;53.246;6.658;2024-03-08T09:18:18;4.60;69.40
51841;DHT22;37888;53.246;6.658;2024-03-08T09:20:44;4.70;71.80
51841;DHT22;37888;53.246;6.658;2024-03-08T09:23:10;4.80;67.70
51841;DHT22;37888;53.246;6.658;2024-03-08T09:25:37;4.80;65.80
51841;DHT22;37888;53.246;6.658;2024-03-08T09:28:03;4.80;66.10
51841;DHT22;37888;53.246;6.658;2024-03-08T09:30:28;4.80;65.70
51841;DHT22;37888;53.246;6.658;2024-03-08T09:32:54;4.90;65.80
51841;DHT22;37888;53.246;6.658;2024-03-08T09:35:20;4.90;67.90
51841;DHT22;37888;53.246;6.658;2024-03-08T09:37:45;5.00;65.50
51841;DHT22;37888;53.246;6.658;2024-03-08T09:40:13;5.00;65.80
51841;DHT22;37888;53.246;6.658;2024-03-08T09:42:41;5.00;64.10
51841;DHT22;37888;53.246;6.658;2024-03-08T09:45:11;5.00;64.20
51841;DHT22;37888;53.246;6.658;2024-03-08T09:47:40;5.10;65.40
51841;DHT22;37888;53.246;6.658;2024-03-08T09:50:06;5.20;67.30
51841;DHT22;37888;53.246;6.658;2024-03-08T09:52:35;5.20;63.80
51841;DHT22;37888;53.246;6.658;2024-03-08T09:55:04;5.30;64.50
51841;DHT22;37888;53.246;6.658;2024-03-08T09:57:30;5.30;62.30
51841;DHT22;37888;53.246;6.658;2024-03-08T09:59:56;5.40;64.20
51841;DHT22;37888;53.246;6.658;2024-03-08T10:02:21;5.40;60.20
51841;DHT22;37888;53.246;6.658;2024-03-08T10:04:47;5.50;62.60
51841;DHT22;37888;53.246;6.658;2024-03-08T10:07:13;5.60;61.00
51841;DHT22;37888;53.246;6.658;2024-03-08T10:09:39;5.50;58.50
51841;DHT22;37888;53.246;6.658;2024-03-08T10:12:05;5.50;60.60
51841;DHT22;37888;53.246;6.658;2024-03-08T10:14:50;5.60;59.10
51841;DHT22;37888;53.246;6.658;2024-03-08T10:17:19;5.60;58.60
51841;DHT22;37888;53.246;6.658;2024-03-08T10:19:51;5.60;56.80
51841;DHT22;37888;53.246;6.658;2024-03-08T10:22:18;5.60;59.00
51841;DHT22;37888;53.246;6.658;2024-03-08T10:24:45;5.70;60.30
51841;DHT22;37888;53.246;6.658;2024-03-08T10:27:11;5.70;59.30
51841;DHT22;37888;53.246;6.658;2024-03-08T10:29:36;5.70;59.70
51841;DHT22;37888;53.246;6.658;2024-03-08T10:32:04;5.60;58.30
51841;DHT22;37888;53.246;6.658;2024-03-08T10:34:32;5.70;58.60
51841;DHT22;37888;53.246;6.658;2024-03-08T10:36:58;5.70;57.20
51841;DHT22;37888;53.246;6.658;2024-03-08T10:39:26;5.80;59.80
51841;DHT22;37888;53.246;6.658;2024-03-08T10:41:58;5.90;58.00
51841;DHT22;37888;53.246;6.658;2024-03-08T10:46:57;6.00;58.10
51841;DHT22;37888;53.246;6.658;2024-03-08T10:49:30;6.10;58.90
51841;DHT22;37888;53.246;6.658;2024-03-08T10:52:05;6.20;59.00
51841;DHT22;37888;53.246;6.658;2024-03-08T10:54:37;6.30;58.00
51841;DHT22;37888;53.246;6.658;2024-03-08T10:57:05;6.30;58.00
51841;DHT22;37888;53.246;6.658;2024-03-08T10:59:31;6.40;59.20
51841;DHT22;37888;53.246;6.658;2024-03-08T11:01:59;6.40;57.00
51841;DHT22;37888;53.246;6.658;2024-03-08T11:04:25;6.50;57.80
51841;DHT22;37888;53.246;6.658;2024-03-08T11:06:51;6.50;56.00
51841;DHT22;37888;53.246;6.658;2024-03-08T11:09:29;6.50;55.00
51841;DHT22;37888;53.246;6.658;2024-03-08T11:14:44;6.60;55.70
51841;DHT22;37888;53.246;6.658;2024-03-08T11:17:13;6.80;57.60
51841;DHT22;37888;53.246;6.658;2024-03-08T11:19:44;6.80;54.80
51841;DHT22;37888;53.246;6.658;2024-03-08T11:22:12;6.80;53.80
51841;DHT22;37888;53.246;6.658;2024-03-08T11:24:45;6.90;55.00
51841;DHT22;37888;53.246;6.658;2024-03-08T11:27:11;7.00;54.90
51841;DHT22;37888;53.246;6.658;2024-03-08T11:29:37;7.00;55.60
51841;DHT22;37888;53.246;6.658;2024-03-08T11:34:39;7.20;53.90
51841;DHT22;37888;53.246;6.658;2024-03-08T11:37:07;7.20;53.60
51841;DHT22;37888;53.246;6.658;2024-03-08T11:39:38;7.30;55.20
51841;DHT22;37888;53.246;6.658;2024-03-08T11:42:04;7.30;51.50
51841;DHT22;37888;53.246;6.658;2024-03-08T11:44:30;7.40;53.20
51841;DHT22;37888;53.246;6.658;2024-03-08T11:46:57;7.40;50.90
51841;DHT22;37888;53.246;6.658;2024-03-08T11:49:25;7.30;50.40
51841;DHT22;37888;53.246;6.658;2024-03-08T11:51:52;7.40;51.50
51841;DHT22;37888;53.246;6.658;2024-03-08T11:54:19;7.40;50.90
51841;DHT22;37888;53.246;6.658;2024-03-08T11:56:45;7.40;48.90
51841;DHT22;37888;53.246;6.658;2024-03-08T11:59:13;7.50;51.70
51841;DHT22;37888;53.246;6.658;2024-03-08T12:01:39;8.20;49.70
51841;DHT22;37888;53.246;6.658;2024-03-08T12:04:04;7.60;49.50
51841;DHT22;37888;53.246;6.658;2024-03-08T12:06:38;7.60;49.10
51841;DHT22;37888;53.246;6.658;2024-03-08T12:09:13;7.70;50.50
51841;DHT22;37888;53.246;6.658;2024-03-08T12:11:40;7.70;47.40
51841;DHT22;37888;53.246;6.658;2024-03-08T12:14:06;7.80;49.20
51841;DHT22;37888;53.246;6.658;2024-03-08T12:16:32;7.80;46.90
51841;DHT22;37888;53.246;6.658;2024-03-08T12:18:57;7.90;48.60
51841;DHT22;37888;53.246;6.658;2024-03-08T12:21:25;7.90;47.80
51841;DHT22;37888;53.246;6.658;2024-03-08T12:24:09;7.90;47.60
51841;DHT22;37888;53.246;6.658;2024-03-08T12:26:37;7.90;47.10
51841;DHT22;37888;53.246;6.658;2024-03-08T12:29:37;8.10;51.90
51841;DHT22;37888;53.246;6.658;2024-03-08T12:31:57;8.20;49.20
51841;DHT22;37888;53.246;6.658;2024-03-08T12:34:25;8.20;48.00
51841;DHT22;37888;53.246;6.658;2024-03-08T12:36:52;8.20;46.70
51841;DHT22;37888;53.246;6.658;2024-03-08T12:39:19;8.20;47.90
51841;DHT22;37888;53.246;6.658;2024-03-08T12:41:55;8.20;47.40
51841;DHT22;37888;53.246;6.658;2024-03-08T12:44:22;8.30;48.00
51841;DHT22;37888;53.246;6.658;2024-03-08T12:46:48;8.40;48.10
51841;DHT22;37888;53.246;6.658;2024-03-08T12:49:14;8.40;45.30
51841;DHT22;37888;53.246;6.658;2024-03-08T12:51:43;8.40;44.20
51841;DHT22;37888;53.246;6.658;2024-03-08T12:54:09;8.40;45.30
51841;DHT22;37888;53.246;6.658;2024-03-08T12:56:35;8.40;44.70
51841;DHT22;37888;53.246;6.658;2024-03-08T12:59:06;8.50;46.70
51841;DHT22;37888;53.246;6.658;2024-03-08T13:01:33;8.50;44.10
51841;DHT22;37888;53.246;6.658;2024-03-08T13:03:59;8.60;46.30
51841;DHT22;37888;53.246;6.658;2024-03-08T13:06:27;8.60;45.20
51841;DHT22;37888;53.246;6.658;2024-03-08T13:08:54;8.60;44.30
51841;DHT22;37888;53.246;6.658;2024-03-08T13:11:20;8.60;44.60
51841;DHT22;37888;53.246;6.658;2024-03-08T13:13:46;8.70;44.80
51841;DHT22;37888;53.246;6.658;2024-03-08T13:16:12;8.70;42.90
51841;DHT22;37888;53.246;6.658;2024-03-08T13:18:43;8.80;45.70
51841;DHT22;37888;53.246;6.658;2024-03-08T13:21:11;8.80;43.90
51841;DHT22;37888;53.246;6.658;2024-03-08T13:23:39;8.80;43.40
51841;DHT22;37888;53.246;6.658;2024-03-08T13:26:08;8.80;42.10
51841;DHT22;37888;53.246;6.658;2024-03-08T13:28:34;8.90;44.00
51841;DHT22;37888;53.246;6.658;2024-03-08T13:31:06;8.90;43.10
51841;DHT22;37888;53.246;6.658;2024-03-08T13:33:35;8.90;41.90
51841;DHT22;37888;53.246;6.658;2024-03-08T13:36:01;8.90;43.60
51841;DHT22;37888;53.246;6.658;2024-03-08T13:38:27;9.00;43.60
51841;DHT22;37888;53.246;6.658;2024-03-08T13:40:53;9.10;44.20
51841;DHT22;37888;53.246;6.658;2024-03-08T13:43:18;9.00;41.40
51841;DHT22;37888;53.246;6.658;2024-03-08T13:45:45;9.00;41.40
51841;DHT22;37888;53.246;6.658;2024-03-08T13:48:11;9.00;44.00
51841;DHT22;37888;53.246;6.658;2024-03-08T13:50:38;9.00;40.60
51841;DHT22;37888;53.246;6.658;2024-03-08T13:53:04;8.90;40.10
51841;DHT22;37888;53.246;6.658;2024-03-08T13:55:29;8.90;41.80
51841;DHT22;37888;53.246;6.658;2024-03-08T13:57:56;8.90;41.00
51841;DHT22;37888;53.246;6.658;2024-03-08T14:00:25;8.90;40.00
51841;DHT22;37888;53.246;6.658;2024-03-08T14:02:53;8.90;38.20
51841;DHT22;37888;53.246;6.658;2024-03-08T14:05:19;8.80;42.10
51841;DHT22;37888;53.246;6.658;2024-03-08T14:07:48;8.80;41.90
51841;DHT22;37888;53.246;6.658;2024-03-08T14:10:14;8.80;40.40
51841;DHT22;37888;53.246;6.658;2024-03-08T14:12:40;8.80;41.70
51841;DHT22;37888;53.246;6.658;2024-03-08T14:15:08;8.80;38.60
51841;DHT22;37888;53.246;6.658;2024-03-08T14:17:34;8.70;41.90
51841;DHT22;37888;53.246;6.658;2024-03-08T14:19:59;8.70;41.10
51841;DHT22;37888;53.246;6.658;2024-03-08T14:22:25;8.70;42.20
51841;DHT22;37888;53.246;6.658;2024-03-08T14:24:52;8.70;42.50
51841;DHT22;37888;53.246;6.658;2024-03-08T14:27:21;8.70;41.10
51841;DHT22;37888;53.246;6.658;2024-03-08T14:29:48;8.60;41.90
51841;DHT22;37888;53.246;6.658;2024-03-08T14:32:13;8.70;43.30
51841;DHT22;37888;53.246;6.658;2024-03-08T14:34:39;8.70;43.50
51841;DHT22;37888;53.246;6.658;2024-03-08T14:37:05;8.60;42.80
51841;DHT22;37888;53.246;6.658;2024-03-08T14:39:37;8.50;44.30
51841;DHT22;37888;53.246;6.658;2024-03-08T14:42:03;8.50;43.70
51841;DHT22;37888;53.246;6.658;2024-03-08T14:44:29;8.40;41.40
51841;DHT22;37888;53.246;6.658;2024-03-08T14:46:55;8.40;40.30
51841;DHT22;37888;53.246;6.658;2024-03-08T14:49:22;8.30;42.70
51841;DHT22;37888;53.246;6.658;2024-03-08T14:51:48;8.30;42.20
51841;DHT22;37888;53.246;6.658;2024-03-08T14:54:14;8.30;42.80
51841;DHT22;37888;53.246;6.658;2024-03-08T14:56:40;8.20;40.20
51841;DHT22;37888;53.246;6.658;2024-03-08T14:59:09;8.20;41.60
51841;DHT22;37888;53.246;6.658;2024-03-08T15:01:35;8.10;40.90
51841;DHT22;37888;53.246;6.658;2024-03-08T15:04:04;8.10;41.80
51841;DHT22;37888;53.246;6.658;2024-03-08T15:06:42;8.10;39.60
51841;DHT22;37888;53.246;6.658;2024-03-08T15:09:08;8.10;39.00
51841;DHT22;37888;53.246;6.658;2024-03-08T15:11:40;8.10;39.50
51841;DHT22;37888;53.246;6.658;2024-03-08T15:14:08;8.10;39.00
51841;DHT22;37888;53.246;6.658;2024-03-08T15:16:37;8.10;38.00
51841;DHT22;37888;53.246;6.658;2024-03-08T15:19:05;8.00;38.40
51841;DHT22;37888;53.246;6.658;2024-03-08T15:21:31;8.00;41.10
51841;DHT22;37888;53.246;6.658;2024-03-08T15:23:56;7.90;40.30
51841;DHT22;37888;53.246;6.658;2024-03-08T15:26:22;7.90;40.30
51841;DHT22;37888;53.246;6.658;2024-03-08T15:28:49;7.90;41.90
51841;DHT22;37888;53.246;6.658;2024-03-08T15:31:17;7.90;41.90
51841;DHT22;37888;53.246;6.658;2024-03-08T15:33:45;7.90;41.60
51841;DHT22;37888;53.246;6.658;2024-03-08T15:36:13;7.80;41.00
51841;DHT22;37888;53.246;6.658;2024-03-08T15:38:41;7.80;42.30
51841;DHT22;37888;53.246;6.658;2024-03-08T15:41:09;7.80;42.70
51841;DHT22;37888;53.246;6.658;2024-03-08T15:43:41;7.70;41.30
51841;DHT22;37888;53.246;6.658;2024-03-08T15:46:07;7.70;40.80
51841;DHT22;37888;53.246;6.658;2024-03-08T15:48:33;7.70;42.70
51841;DHT22;37888;53.246;6.658;2024-03-08T15:51:01;7.70;41.60